createdAt,value
2018-08-22T00:01:35.912Z,8.50
2018-08-22T00:04:04.118Z,7.63
2018-08-22T00:06:32.341Z,8.47
2018-08-22T00:09:00.624Z,8.50
2018-08-22T00:11:28.805Z,8.00
2018-08-22T00:13:57.049Z,9.87
2018-08-22T00:16:25.273Z,9.10
2018-08-22T00:18:53.503Z,8.30
2018-08-22T00:21:21.726Z,8.57
2018-08-22T00:23:49.960Z,8.70
2018-08-22T00:26:18.202Z,8.30
2018-08-22T00:28:46.434Z,8.97
2018-08-22T00:31:14.677Z,8.53
2018-08-22T00:33:42.907Z,8.53
2018-08-22T00:36:11.156Z,8.60
2018-08-22T00:38:39.394Z,8.57
2018-08-22T00:41:07.650Z,8.47
2018-08-22T00:43:35.892Z,7.60
2018-08-22T00:46:04.114Z,8.37
2018-08-22T00:48:32.349Z,9.20
2018-08-22T00:51:00.598Z,8.73
2018-08-22T00:53:28.854Z,8.90
2018-08-22T00:55:57.087Z,8.70
2018-08-22T00:58:25.326Z,8.87
2018-08-22T01:00:53.565Z,9.80
2018-08-22T01:03:21.801Z,9.13
2018-08-22T01:05:50.025Z,9.00
2018-08-22T01:08:18.297Z,8.67
2018-08-22T01:10:46.510Z,8.80
2018-08-22T01:13:14.742Z,9.10
2018-08-22T01:15:42.978Z,9.00
2018-08-22T01:18:11.218Z,9.10
2018-08-22T01:20:39.432Z,9.13
2018-08-22T01:23:07.686Z,8.53
2018-08-22T01:25:35.915Z,9.20
2018-08-22T01:28:04.336Z,8.40
2018-08-22T01:30:32.578Z,8.63
2018-08-22T01:33:00.807Z,9.60
2018-08-22T01:35:29.054Z,9.03
2018-08-22T01:37:57.265Z,9.50
2018-08-22T01:40:25.511Z,8.53
2018-08-22T01:42:53.734Z,8.37
2018-08-22T01:45:21.983Z,9.00
2018-08-22T01:47:50.206Z,9.20
2018-08-22T01:50:18.437Z,8.73
2018-08-22T01:52:46.663Z,8.50
2018-08-22T01:55:14.897Z,9.27
2018-08-22T01:57:43.135Z,8.90
2018-08-22T02:02:46.138Z,8.60
2018-08-22T02:05:14.388Z,9.00
2018-08-22T02:07:42.623Z,8.40
2018-08-22T02:10:10.849Z,9.17
2018-08-22T02:12:39.072Z,9.20
2018-08-22T02:15:07.302Z,9.13
2018-08-22T02:17:35.534Z,10.30
2018-08-22T02:20:03.783Z,8.33
2018-08-22T02:22:32.022Z,9.60
2018-08-22T02:25:00.256Z,9.20
2018-08-22T02:27:28.803Z,9.17
2018-08-22T02:29:57.022Z,9.43
2018-08-22T02:32:25.373Z,9.10
2018-08-22T02:34:53.611Z,9.53
2018-08-22T02:37:21.913Z,8.80
2018-08-22T02:39:50.245Z,9.30
2018-08-22T02:42:18.466Z,8.57
2018-08-22T02:44:46.711Z,8.23
2018-08-22T02:47:14.943Z,9.93
2018-08-22T02:49:43.174Z,8.90
2018-08-22T02:52:11.406Z,9.87
2018-08-22T02:54:39.633Z,9.40
2018-08-22T02:57:07.862Z,9.03
2018-08-22T02:59:36.086Z,8.67
2018-08-22T03:02:04.329Z,9.43
2018-08-22T03:04:32.540Z,8.50
2018-08-22T03:07:00.803Z,9.27
2018-08-22T03:09:29.022Z,8.90
2018-08-22T03:11:57.261Z,9.37
2018-08-22T03:14:25.490Z,9.00
2018-08-22T03:16:53.725Z,9.37
2018-08-22T03:19:21.932Z,9.57
2018-08-22T03:21:50.159Z,8.63
2018-08-22T03:24:18.383Z,8.77
2018-08-22T03:26:46.631Z,8.53
2018-08-22T03:29:14.841Z,8.37
2018-08-22T03:31:43.104Z,9.37
2018-08-22T03:34:11.322Z,9.07
2018-08-22T03:36:39.559Z,9.90
2018-08-22T03:39:09.134Z,8.37
2018-08-22T03:41:37.379Z,9.07
2018-08-22T03:44:05.616Z,8.43
2018-08-22T03:46:33.882Z,9.83
2018-08-22T03:49:02.109Z,10.13
2018-08-22T03:51:30.390Z,10.00
2018-08-22T03:53:58.617Z,9.67
2018-08-22T03:59:01.616Z,9.40
2018-08-22T04:01:29.860Z,9.87
2018-08-22T04:03:58.095Z,9.17
2018-08-22T04:06:26.326Z,8.13
2018-08-22T04:08:54.855Z,9.40
2018-08-22T04:11:23.095Z,8.30
2018-08-22T04:13:51.338Z,9.53
2018-08-22T04:16:19.566Z,8.40
2018-08-22T04:18:47.796Z,9.83
2018-08-22T04:21:16.034Z,9.20
2018-08-22T04:23:44.288Z,8.30
2018-08-22T04:26:12.567Z,10.10
2018-08-22T04:28:40.821Z,9.77
2018-08-22T04:31:09.071Z,9.73
2018-08-22T04:33:37.351Z,8.87
2018-08-22T04:36:05.574Z,9.77
2018-08-22T04:38:33.822Z,8.70
2018-08-22T04:41:02.058Z,9.47
2018-08-22T04:43:30.291Z,9.30
2018-08-22T04:45:58.515Z,9.07
2018-08-22T04:48:26.751Z,10.40
2018-08-22T04:50:54.998Z,10.00
2018-08-22T04:53:23.245Z,10.10
2018-08-22T04:55:51.487Z,10.60
2018-08-22T04:58:19.714Z,10.00
2018-08-22T05:00:47.938Z,9.33
2018-08-22T05:03:16.188Z,9.20
2018-08-22T05:05:44.419Z,10.27
2018-08-22T05:08:12.655Z,9.93
2018-08-22T05:10:40.902Z,9.03
2018-08-22T05:13:09.136Z,9.37
2018-08-22T05:15:37.370Z,10.13
2018-08-22T05:18:06.220Z,10.17
2018-08-22T05:20:34.476Z,9.47
2018-08-22T05:23:02.825Z,9.80
2018-08-22T05:25:31.058Z,9.50
2018-08-22T05:27:59.318Z,10.17
2018-08-22T05:30:27.574Z,10.87
2018-08-22T05:32:55.820Z,9.40
2018-08-22T05:35:24.044Z,9.50
2018-08-22T05:37:52.276Z,10.00
2018-08-22T05:40:20.501Z,9.37
2018-08-22T05:42:48.738Z,9.67
2018-08-22T05:45:16.965Z,9.17
2018-08-22T05:47:45.240Z,8.80
2018-08-22T05:50:13.515Z,10.10
2018-08-22T05:52:41.747Z,9.97
2018-08-22T05:55:09.986Z,9.57
2018-08-22T05:57:38.230Z,10.07
2018-08-22T06:00:06.958Z,9.80
2018-08-22T06:02:35.179Z,9.60
2018-08-22T06:05:03.422Z,9.37
2018-08-22T06:07:31.654Z,9.67
2018-08-22T06:09:59.878Z,9.73
2018-08-22T06:12:28.099Z,10.47
2018-08-22T06:14:56.328Z,10.83
2018-08-22T06:17:24.557Z,10.97
2018-08-22T06:19:52.800Z,9.07
2018-08-22T06:22:21.026Z,9.77
2018-08-22T06:24:49.276Z,10.40
2018-08-22T06:27:17.495Z,9.20
2018-08-22T06:29:45.739Z,9.27
2018-08-22T06:32:13.994Z,10.20
2018-08-22T06:34:42.240Z,9.83
2018-08-22T06:37:10.454Z,10.00
2018-08-22T06:39:38.694Z,9.00
2018-08-22T06:42:06.934Z,9.80
2018-08-22T06:44:35.174Z,9.80
2018-08-22T06:47:03.402Z,9.63
2018-08-22T06:49:31.636Z,10.20
2018-08-22T06:51:59.852Z,10.50
2018-08-22T06:54:28.087Z,10.30
2018-08-22T06:56:56.341Z,10.37
2018-08-22T06:59:24.599Z,11.43
2018-08-22T07:01:52.840Z,11.23
2018-08-22T07:04:21.060Z,11.00
2018-08-22T07:06:49.308Z,11.40
2018-08-22T07:09:17.519Z,10.90
2018-08-22T07:11:45.761Z,11.47
2018-08-22T07:14:13.986Z,10.67
2018-08-22T07:16:42.224Z,12.47
2018-08-22T07:19:10.452Z,10.97
2018-08-22T07:21:38.690Z,10.90
2018-08-22T07:24:06.928Z,11.20
2018-08-22T07:26:35.153Z,9.80
2018-08-22T07:29:03.386Z,10.80
2018-08-22T07:31:31.636Z,10.43
2018-08-22T07:33:59.858Z,10.50
2018-08-22T07:36:28.139Z,10.27
2018-08-22T07:38:56.363Z,9.80
2018-08-22T07:41:24.603Z,10.87
2018-08-22T07:43:52.833Z,10.90
2018-08-22T07:46:21.076Z,10.03
2018-08-22T07:48:49.298Z,9.70
2018-08-22T07:51:17.550Z,10.60
2018-08-22T07:53:45.787Z,11.17
2018-08-22T07:56:14.024Z,11.43
2018-08-22T07:58:42.285Z,10.70
2018-08-22T08:01:10.529Z,10.40
2018-08-22T08:03:38.751Z,9.63
2018-08-22T08:06:06.985Z,10.50
2018-08-22T08:08:35.232Z,10.10
2018-08-22T08:11:03.544Z,9.80
2018-08-22T08:13:31.709Z,9.57
2018-08-22T08:15:59.940Z,10.33
2018-08-22T08:18:28.174Z,10.70
2018-08-22T08:20:56.420Z,10.00
2018-08-22T08:23:24.651Z,10.00
2018-08-22T08:25:52.872Z,11.10
2018-08-22T08:28:21.110Z,10.63
2018-08-22T08:30:49.364Z,10.00
2018-08-22T08:33:17.609Z,10.70
2018-08-22T08:35:45.905Z,9.40
2018-08-22T08:38:14.096Z,10.97
2018-08-22T08:40:42.323Z,11.10
2018-08-22T08:43:10.552Z,10.20
2018-08-22T08:45:39.198Z,10.50
2018-08-22T08:48:07.451Z,9.73
2018-08-22T08:50:35.683Z,11.10
2018-08-22T08:53:03.905Z,10.30
2018-08-22T08:55:32.208Z,9.80
2018-08-22T08:58:00.445Z,10.43
2018-08-22T09:00:28.686Z,10.63
2018-08-22T09:02:56.924Z,10.30
2018-08-22T09:05:25.137Z,10.37
2018-08-22T09:07:53.389Z,10.40
2018-08-22T09:10:21.623Z,9.07
2018-08-22T09:12:49.866Z,11.07
2018-08-22T09:15:18.103Z,10.80
2018-08-22T09:17:46.348Z,10.80
2018-08-22T09:20:14.601Z,10.50
2018-08-22T09:22:42.842Z,8.90
2018-08-22T09:25:11.079Z,9.43
2018-08-22T09:27:39.350Z,9.53
2018-08-22T09:30:08.396Z,9.80
2018-08-22T09:32:36.639Z,10.03
2018-08-22T09:35:04.883Z,10.43
2018-08-22T09:37:33.119Z,8.70
2018-08-22T09:40:01.475Z,9.77
2018-08-22T09:42:29.624Z,8.83
2018-08-22T09:44:57.859Z,9.10
2018-08-22T09:47:26.088Z,9.27
2018-08-22T09:49:54.330Z,8.97
2018-08-22T09:52:22.564Z,8.67
2018-08-22T09:54:58.753Z,9.30
2018-08-22T09:57:33.419Z,8.97
2018-08-22T10:00:01.687Z,10.00
2018-08-22T10:02:29.905Z,9.20
2018-08-22T10:04:59.321Z,9.77
2018-08-22T10:07:27.663Z,8.50
2018-08-22T10:09:55.829Z,9.20
2018-08-22T10:12:24.041Z,8.47
2018-08-22T10:14:52.284Z,9.27
2018-08-22T10:17:20.514Z,8.70
2018-08-22T10:19:48.733Z,9.10
2018-08-22T10:22:16.976Z,8.57
2018-08-22T10:24:45.202Z,9.03
2018-08-22T10:27:13.447Z,9.03
2018-08-22T10:29:41.673Z,9.37
2018-08-22T10:32:09.920Z,8.83
2018-08-22T10:34:38.155Z,8.30
2018-08-22T10:37:06.379Z,8.53
2018-08-22T10:39:34.628Z,8.67
2018-08-22T10:42:02.828Z,8.73
2018-08-22T10:44:31.095Z,9.00
2018-08-22T10:46:59.278Z,9.20
2018-08-22T10:49:27.525Z,8.80
2018-08-22T10:51:55.743Z,8.87
2018-08-22T10:54:23.993Z,8.97
2018-08-22T10:56:52.220Z,8.43
2018-08-22T10:59:20.464Z,8.20
2018-08-22T11:01:48.705Z,8.73
2018-08-22T11:04:16.926Z,8.80
2018-08-22T11:06:45.151Z,8.60
2018-08-22T11:09:13.397Z,7.80
2018-08-22T11:11:41.630Z,8.10
2018-08-22T11:14:10.070Z,8.93
2018-08-22T11:16:38.424Z,7.83
2018-08-22T11:19:06.695Z,8.60
2018-08-22T11:21:46.338Z,8.43
2018-08-22T11:24:25.999Z,8.07
2018-08-22T11:27:05.501Z,8.70
2018-08-22T11:29:45.130Z,7.93
2018-08-22T11:32:24.673Z,8.10
2018-08-22T11:34:52.510Z,8.67
2018-08-22T11:37:20.742Z,9.10
2018-08-22T11:39:50.382Z,9.07
2018-08-22T11:42:18.857Z,8.40
2018-08-22T11:44:47.098Z,8.63
2018-08-22T11:47:15.336Z,8.60
2018-08-22T11:49:43.585Z,9.40
2018-08-22T11:52:11.812Z,8.60
2018-08-22T11:54:40.055Z,8.40
2018-08-22T11:57:08.276Z,8.90
2018-08-22T11:59:36.501Z,8.17
2018-08-22T12:02:04.762Z,9.40
2018-08-22T12:04:33.010Z,8.47
2018-08-22T12:07:01.252Z,8.10
2018-08-22T12:09:29.470Z,8.77
2018-08-22T12:11:57.706Z,8.83
2018-08-22T12:14:25.930Z,9.00
2018-08-22T12:16:54.209Z,8.33
2018-08-22T12:19:22.432Z,8.60
2018-08-22T12:21:50.676Z,9.10
2018-08-22T12:24:18.916Z,7.87
2018-08-22T12:26:47.145Z,7.80
2018-08-22T12:29:15.358Z,9.20
2018-08-22T12:31:43.597Z,8.97
2018-08-22T12:34:11.824Z,8.87
2018-08-22T12:36:40.059Z,8.77
2018-08-22T12:39:08.335Z,8.13
2018-08-22T12:41:36.584Z,8.43
2018-08-22T12:44:04.822Z,8.67
2018-08-22T12:46:33.068Z,8.57
2018-08-22T12:49:01.290Z,8.13
2018-08-22T12:51:29.535Z,9.03
2018-08-22T12:53:57.758Z,8.87
2018-08-22T12:56:26.010Z,8.33
2018-08-22T12:58:54.239Z,8.90
2018-08-22T13:01:22.472Z,9.03
2018-08-22T13:03:50.703Z,9.60
2018-08-22T13:06:18.953Z,7.90
2018-08-22T13:08:47.169Z,8.07
2018-08-22T13:11:15.461Z,8.80
2018-08-22T13:13:43.699Z,9.13
2018-08-22T13:16:14.992Z,8.90
2018-08-22T13:18:46.251Z,8.40
2018-08-22T13:21:14.586Z,8.07
2018-08-22T13:23:42.828Z,8.57
2018-08-22T13:26:11.084Z,9.20
2018-08-22T13:28:45.938Z,8.30
2018-08-22T13:31:14.183Z,8.37
2018-08-22T13:33:42.416Z,9.30
2018-08-22T13:36:10.683Z,8.70
2018-08-22T13:38:38.878Z,7.90
2018-08-22T13:41:07.108Z,9.30
2018-08-22T13:43:35.330Z,8.80
2018-08-22T13:46:03.558Z,8.30
2018-08-22T13:48:31.788Z,8.90
2018-08-22T13:51:00.010Z,8.20
2018-08-22T13:53:28.253Z,8.50
2018-08-22T13:55:56.511Z,8.77
2018-08-22T13:58:24.732Z,7.77
2018-08-22T14:00:52.948Z,8.00
2018-08-22T14:03:21.226Z,9.17
2018-08-22T14:05:49.454Z,8.43
2018-08-22T14:08:17.689Z,8.13
2018-08-22T14:10:45.936Z,7.90
2018-08-22T14:13:14.183Z,8.70
2018-08-22T14:15:42.412Z,8.03
2018-08-22T14:18:10.637Z,8.93
2018-08-22T14:20:38.871Z,9.03
2018-08-22T14:23:07.708Z,7.87
2018-08-22T14:25:35.938Z,8.00
2018-08-22T14:28:04.243Z,8.33
2018-08-22T14:30:32.462Z,8.00
2018-08-22T14:33:00.714Z,8.20
2018-08-22T14:35:28.942Z,8.10
2018-08-22T14:37:57.183Z,8.60
2018-08-22T14:40:25.399Z,8.60
2018-08-22T14:42:53.645Z,9.30
2018-08-22T14:45:21.891Z,8.70
2018-08-22T14:47:50.156Z,9.10
2018-08-22T14:50:18.367Z,9.37
2018-08-22T14:52:46.628Z,9.90
2018-08-22T14:55:14.857Z,8.93
2018-08-22T14:57:43.087Z,9.07
2018-08-22T15:00:11.324Z,9.60
2018-08-22T15:02:39.749Z,8.90
2018-08-22T15:05:07.967Z,8.90
2018-08-22T15:07:36.574Z,8.60
2018-08-22T15:10:04.850Z,9.37
2018-08-22T15:12:33.143Z,9.40
2018-08-22T15:15:01.317Z,8.80
2018-08-22T15:17:29.569Z,8.97
2018-08-22T15:19:57.792Z,9.27
2018-08-22T15:22:26.098Z,8.27
2018-08-22T15:24:54.335Z,9.07
2018-08-22T15:27:22.551Z,8.87
2018-08-22T15:29:50.791Z,8.90
2018-08-22T15:32:19.025Z,8.67
2018-08-22T15:34:51.300Z,8.70
2018-08-22T15:37:19.882Z,10.00
2018-08-22T15:39:48.272Z,8.60
2018-08-22T15:42:16.503Z,8.83
2018-08-22T15:44:44.787Z,8.00
2018-08-22T15:47:13.576Z,8.77
2018-08-22T15:49:41.806Z,8.40
2018-08-22T15:52:10.039Z,8.20
2018-08-22T15:54:38.275Z,8.83
2018-08-22T15:57:06.496Z,8.17
2018-08-22T15:59:34.731Z,8.03
2018-08-22T16:02:02.989Z,7.80
2018-08-22T16:04:41.898Z,8.20
2018-08-22T16:07:10.130Z,8.70
2018-08-22T16:09:38.903Z,8.40
2018-08-22T16:12:07.122Z,7.77
2018-08-22T16:14:35.360Z,8.50
2018-08-22T16:17:03.584Z,7.57
2018-08-22T16:19:32.111Z,7.73
2018-08-22T16:22:00.336Z,8.40
2018-08-22T16:24:29.337Z,8.53
2018-08-22T16:26:57.559Z,7.87
2018-08-22T16:29:25.883Z,7.40
2018-08-22T16:31:55.729Z,7.00
2018-08-22T16:34:23.955Z,7.20
2018-08-22T16:36:52.174Z,6.60
2018-08-22T16:39:36.131Z,6.93
2018-08-22T16:42:04.357Z,7.60
2018-08-22T16:44:32.608Z,7.10
2018-08-22T16:47:00.828Z,6.83
2018-08-22T16:49:29.124Z,7.03
2018-08-22T16:51:57.294Z,7.03
2018-08-22T16:54:25.538Z,6.07
2018-08-22T16:56:53.770Z,7.27
2018-08-22T16:59:22.029Z,7.03
2018-08-22T17:01:51.314Z,6.80
2018-08-22T17:04:19.541Z,6.13
2018-08-22T17:06:47.999Z,6.60
2018-08-22T17:09:16.218Z,6.90
2018-08-22T17:11:44.451Z,7.03
2018-08-22T17:14:12.710Z,6.87
2018-08-22T17:16:40.930Z,6.97
2018-08-22T17:19:09.167Z,6.97
2018-08-22T17:21:37.377Z,6.47
2018-08-22T17:24:05.727Z,7.33
2018-08-22T17:26:33.964Z,7.30
2018-08-22T17:29:02.194Z,7.40
2018-08-22T17:31:30.814Z,8.90
2018-08-22T17:34:00.308Z,8.23
2018-08-22T17:36:28.555Z,7.40
2018-08-22T17:38:57.658Z,6.73
2018-08-22T17:41:27.204Z,7.10
2018-08-22T17:44:00.377Z,7.17
2018-08-22T17:46:30.791Z,7.73
2018-08-22T17:48:59.190Z,6.80
2018-08-22T17:51:27.578Z,7.10
2018-08-22T17:53:55.803Z,7.60
2018-08-22T17:56:25.151Z,7.20
2018-08-22T17:58:54.275Z,7.17
2018-08-22T18:01:23.242Z,6.93
2018-08-22T18:03:53.646Z,8.03
2018-08-22T18:06:21.955Z,7.90
2018-08-22T18:08:50.126Z,6.77
2018-08-22T18:11:18.367Z,7.37
2018-08-22T18:13:46.621Z,7.40
2018-08-22T18:16:14.929Z,7.53
2018-08-22T18:18:43.146Z,7.43
2018-08-22T18:21:11.386Z,7.43
2018-08-22T18:23:44.946Z,8.57
2018-08-22T18:26:13.483Z,7.70
2018-08-22T18:28:41.733Z,7.43
2018-08-22T18:31:09.990Z,8.90
2018-08-22T18:33:50.495Z,7.70
2018-08-22T18:36:18.754Z,7.10
2018-08-22T18:39:07.327Z,7.93
2018-08-22T18:41:35.712Z,7.40
2018-08-22T18:44:04.179Z,7.50
2018-08-22T18:46:32.432Z,7.67
2018-08-22T18:49:01.302Z,6.83
2018-08-22T18:51:36.384Z,7.60
2018-08-22T18:54:05.069Z,7.00
2018-08-22T18:56:33.307Z,7.47
2018-08-22T18:59:35.800Z,7.60
2018-08-22T19:02:04.031Z,8.47
2018-08-22T19:04:32.278Z,7.90
2018-08-22T19:07:00.527Z,7.10
2018-08-22T19:09:28.762Z,8.20
2018-08-22T19:11:57.008Z,7.47
2018-08-22T19:14:37.172Z,7.80
2018-08-22T19:17:05.483Z,7.67
2018-08-22T19:19:37.939Z,7.80
2018-08-22T19:22:06.380Z,8.50
2018-08-22T19:24:34.602Z,7.80
2018-08-22T19:27:02.860Z,8.00
2018-08-22T19:29:31.103Z,8.27
2018-08-22T19:31:59.357Z,8.20
2018-08-22T19:34:27.572Z,7.90
2018-08-22T19:36:55.824Z,7.40
2018-08-22T19:39:24.048Z,8.57
2018-08-22T19:41:52.286Z,7.87
2018-08-22T19:44:20.514Z,7.97
2018-08-22T19:46:48.774Z,8.17
2018-08-22T19:49:17.000Z,8.00
2018-08-22T19:51:45.231Z,8.00
2018-08-22T19:54:13.482Z,8.57
2018-08-22T19:56:41.713Z,8.40
2018-08-22T19:59:09.935Z,8.30
2018-08-22T20:01:38.425Z,7.63
2018-08-22T20:04:06.657Z,7.70
2018-08-22T20:06:34.883Z,7.53
2018-08-22T20:09:03.138Z,7.50
2018-08-22T20:11:32.757Z,8.40
2018-08-22T20:14:07.379Z,8.10
2018-08-22T20:16:35.625Z,7.53
2018-08-22T20:19:04.938Z,8.30
2018-08-22T20:21:35.279Z,8.37
2018-08-22T20:24:04.969Z,8.13
2018-08-22T20:26:33.514Z,7.23
2018-08-22T20:29:03.071Z,7.60
2018-08-22T20:31:31.483Z,7.13
2018-08-22T20:34:08.115Z,8.60
2018-08-22T20:36:36.416Z,7.30
2018-08-22T20:39:10.915Z,9.07
2018-08-22T20:41:39.922Z,7.60
2018-08-22T20:44:11.873Z,7.83
2018-08-22T20:46:40.794Z,8.20
2018-08-22T20:49:09.016Z,8.27
2018-08-22T20:51:37.247Z,8.57
2018-08-22T20:54:08.705Z,8.20
2018-08-22T20:56:40.444Z,8.07
2018-08-22T20:59:08.671Z,8.40
2018-08-22T21:01:43.226Z,7.53
2018-08-22T21:04:11.508Z,8.27
2018-08-22T21:06:39.730Z,7.47
2018-08-22T21:09:08.031Z,7.20
2018-08-22T21:11:38.190Z,8.30
2018-08-22T21:14:06.750Z,8.13
2018-08-22T21:16:35.249Z,8.60
2018-08-22T21:19:03.611Z,7.90
2018-08-22T21:21:31.822Z,8.00
2018-08-22T21:24:00.096Z,7.77
2018-08-22T21:26:42.578Z,7.90
2018-08-22T21:29:10.811Z,8.37
2018-08-22T21:31:39.072Z,8.03
2018-08-22T21:34:13.078Z,7.93
2018-08-22T21:36:43.258Z,7.57
2018-08-22T21:39:16.918Z,7.30
2018-08-22T21:41:46.032Z,7.40
2018-08-22T21:44:17.216Z,7.87
2018-08-22T21:46:45.528Z,7.90
2018-08-22T21:49:14.898Z,8.53
2018-08-22T21:51:43.576Z,7.97
2018-08-22T21:54:12.584Z,8.10
2018-08-22T21:56:41.049Z,8.20
2018-08-22T21:59:10.084Z,8.50
2018-08-22T22:01:47.357Z,8.30
2018-08-22T22:04:21.349Z,7.57
2018-08-22T22:06:50.031Z,7.97
2018-08-22T22:09:18.271Z,7.90
2018-08-22T22:11:46.682Z,8.70
2018-08-22T22:14:20.167Z,8.17
2018-08-22T22:16:48.382Z,8.20
2018-08-22T22:19:16.613Z,7.97
2018-08-22T22:21:44.833Z,8.43
2018-08-22T22:24:13.067Z,7.97
2018-08-22T22:26:41.292Z,8.03
2018-08-22T22:29:09.522Z,7.83
2018-08-22T22:31:37.751Z,8.47
2018-08-22T22:34:06.011Z,7.93
2018-08-22T22:36:34.264Z,8.13
2018-08-22T22:39:02.538Z,7.50
2018-08-22T22:41:31.522Z,8.47
2018-08-22T22:43:59.761Z,8.57
2018-08-22T22:46:27.975Z,7.50
2018-08-22T22:48:56.203Z,8.17
2018-08-22T22:51:24.430Z,8.07
2018-08-22T22:53:52.663Z,8.00
2018-08-22T22:56:20.879Z,8.43
2018-08-22T22:58:49.119Z,8.27
2018-08-22T23:01:17.345Z,7.87
2018-08-22T23:03:45.565Z,7.57
2018-08-22T23:06:13.792Z,8.37
2018-08-22T23:08:42.049Z,7.20
2018-08-22T23:11:10.279Z,8.40
2018-08-22T23:13:38.503Z,7.43
2018-08-22T23:16:06.736Z,8.13
2018-08-22T23:18:35.047Z,7.73
2018-08-22T23:21:03.191Z,7.93
2018-08-22T23:23:35.505Z,8.00
2018-08-22T23:26:23.610Z,8.40
2018-08-22T23:28:51.847Z,8.40
2018-08-22T23:31:20.832Z,8.00
2018-08-22T23:33:49.145Z,7.80
2018-08-22T23:36:17.375Z,7.53
2018-08-22T23:38:45.587Z,7.17
2018-08-22T23:41:13.833Z,7.80
2018-08-22T23:43:50.267Z,8.17
2018-08-22T23:46:18.588Z,7.83
2018-08-22T23:48:55.532Z,8.00
2018-08-22T23:51:23.788Z,8.30
2018-08-22T23:53:52.049Z,7.90
2018-08-22T23:56:25.914Z,7.60
2018-08-22T23:58:54.800Z,7.63
